createdAt,value
2023-03-22T00:01:32.495Z,33.30
2023-03-22T00:04:29.375Z,34.72
2023-03-22T00:07:26.586Z,68.30
2023-03-22T00:10:25.502Z,43.70
2023-03-22T00:13:22.359Z,146.35
2023-03-22T00:16:19.989Z,128.88
2023-03-22T00:19:17.546Z,102.28
2023-03-22T00:22:14.766Z,75.93
2023-03-22T00:25:11.679Z,68.93
2023-03-22T00:28:08.551Z,52.13
2023-03-22T00:31:06.630Z,17.67
2023-03-22T00:34:03.495Z,10.85
2023-03-22T00:37:00.352Z,14.88
2023-03-22T00:39:57.342Z,17.88
2023-03-22T00:42:54.170Z,23.00
2023-03-22T00:45:51.024Z,34.13
2023-03-22T00:48:48.704Z,17.20
2023-03-22T00:51:46.590Z,5.72
2023-03-22T00:54:43.770Z,8.85
2023-03-22T00:57:40.793Z,7.22
2023-03-22T01:00:37.825Z,7.20
2023-03-22T01:03:35.127Z,5.00
2023-03-22T01:06:33.613Z,6.90
2023-03-22T01:09:33.731Z,7.18
2023-03-22T01:12:31.013Z,6.82
2023-03-22T01:15:28.031Z,6.88
2023-03-22T01:18:25.194Z,5.93
2023-03-22T01:21:21.994Z,7.10
2023-03-22T01:24:18.864Z,6.43
2023-03-22T01:27:16.775Z,9.15
2023-03-22T01:30:14.187Z,8.38
2023-03-22T01:33:11.044Z,8.80
2023-03-22T01:36:08.453Z,7.03
2023-03-22T01:39:05.370Z,6.10
2023-03-22T01:42:03.515Z,6.60
2023-03-22T01:45:16.604Z,6.63
2023-03-22T01:48:41.966Z,9.07
2023-03-22T01:51:40.453Z,5.50
2023-03-22T01:54:43.244Z,7.25
2023-03-22T01:57:41.929Z,8.95
2023-03-22T02:00:38.953Z,8.80
2023-03-22T02:03:51.772Z,8.65
2023-03-22T02:06:51.579Z,10.52
2023-03-22T02:09:48.395Z,10.63
2023-03-22T02:13:27.257Z,11.95
2023-03-22T02:17:01.948Z,13.85
2023-03-22T02:20:47.084Z,11.40
2023-03-22T02:24:32.875Z,11.10
2023-03-22T02:28:21.454Z,9.77
2023-03-22T02:32:15.606Z,11.07
2023-03-22T02:35:42.202Z,9.57
2023-03-22T02:39:13.227Z,9.95
2023-03-22T02:46:07.075Z,9.07
2023-03-22T02:49:32.740Z,9.68
2023-03-22T02:53:12.503Z,8.40
2023-03-22T02:56:19.430Z,8.50
2023-03-22T02:59:19.748Z,7.78
2023-03-22T03:02:18.493Z,8.88
2023-03-22T03:05:18.295Z,9.63
2023-03-22T03:08:18.088Z,7.55
2023-03-22T03:11:14.888Z,6.63
2023-03-22T03:14:30.672Z,8.52
2023-03-22T03:18:16.101Z,7.80
2023-03-22T03:22:05.027Z,9.02
2023-03-22T03:25:27.857Z,9.50
2023-03-22T03:29:19.807Z,9.88
2023-03-22T03:32:27.223Z,9.65
2023-03-22T03:35:39.273Z,8.60
2023-03-22T03:38:42.839Z,7.60
2023-03-22T03:41:42.716Z,7.03
2023-03-22T03:44:39.866Z,7.93
2023-03-22T03:47:37.546Z,7.57
2023-03-22T03:50:35.250Z,8.85
2023-03-22T03:53:32.193Z,8.07
2023-03-22T03:56:29.000Z,9.50
2023-03-22T03:59:25.854Z,8.27
2023-03-22T04:02:22.799Z,11.35
2023-03-22T04:05:19.684Z,11.98
2023-03-22T04:08:16.600Z,11.63
2023-03-22T04:11:13.444Z,8.95
2023-03-22T04:14:10.345Z,10.60
2023-03-22T04:17:07.186Z,9.20
2023-03-22T04:20:06.563Z,10.38
2023-03-22T04:23:03.397Z,10.32
2023-03-22T04:26:00.842Z,12.27
2023-03-22T04:28:58.577Z,10.65
2023-03-22T04:31:55.428Z,10.77
2023-03-22T04:34:53.347Z,11.40
2023-03-22T04:37:51.601Z,12.02
2023-03-22T04:40:48.434Z,11.02
2023-03-22T04:43:47.150Z,10.75
2023-03-22T04:46:44.498Z,14.60
2023-03-22T04:49:41.856Z,9.85
2023-03-22T04:52:38.689Z,12.18
2023-03-22T04:55:35.593Z,11.70
2023-03-22T04:58:34.122Z,9.60
2023-03-22T05:01:31.084Z,11.82
2023-03-22T05:04:28.291Z,12.07
2023-03-22T05:07:25.596Z,11.65
2023-03-22T05:10:22.419Z,11.02
2023-03-22T05:13:20.697Z,9.93
2023-03-22T05:16:17.587Z,13.77
2023-03-22T05:19:14.459Z,12.13
2023-03-22T05:22:12.081Z,13.52
2023-03-22T05:25:10.978Z,19.83
2023-03-22T05:28:08.596Z,20.73
2023-03-22T05:31:05.814Z,22.83
2023-03-22T05:34:03.251Z,21.25
2023-03-22T05:37:00.840Z,25.52
2023-03-22T05:39:57.694Z,24.98
2023-03-22T05:42:55.231Z,23.45
2023-03-22T05:45:52.983Z,31.02
2023-03-22T05:48:49.857Z,29.48
2023-03-22T05:51:47.046Z,22.63
2023-03-22T05:54:43.895Z,31.13
2023-03-22T05:57:41.389Z,25.83
2023-03-22T06:00:38.621Z,23.48
2023-03-22T06:03:35.927Z,39.72
2023-03-22T06:06:33.192Z,28.63
2023-03-22T06:09:30.011Z,27.02
2023-03-22T06:12:28.896Z,30.02
2023-03-22T06:15:26.870Z,28.20
2023-03-22T06:18:23.706Z,29.75
2023-03-22T06:21:21.150Z,24.83
2023-03-22T06:24:17.980Z,29.60
2023-03-22T06:27:14.976Z,22.63
2023-03-22T06:30:12.095Z,19.95
2023-03-22T06:33:08.924Z,17.30
2023-03-22T06:36:06.315Z,18.05
2023-03-22T06:39:05.181Z,21.00
2023-03-22T06:42:02.041Z,18.02
2023-03-22T06:44:58.833Z,18.20
2023-03-22T06:47:55.757Z,21.08
2023-03-22T06:50:52.683Z,18.42
2023-03-22T06:53:49.532Z,31.70
2023-03-22T06:56:46.378Z,25.55
2023-03-22T06:59:43.244Z,38.00
2023-03-22T07:02:40.172Z,18.10
2023-03-22T07:05:37.033Z,19.38
2023-03-22T07:08:35.463Z,29.95
2023-03-22T07:11:32.308Z,16.90
2023-03-22T07:14:29.146Z,15.40
2023-03-22T07:17:26.216Z,16.15
2023-03-22T07:20:23.052Z,12.85
2023-03-22T07:23:20.361Z,15.18
2023-03-22T07:26:17.191Z,14.43
2023-03-22T07:29:14.008Z,14.82
2023-03-22T07:32:11.437Z,13.60
2023-03-22T07:35:08.827Z,12.93
2023-03-22T07:38:06.523Z,11.77
2023-03-22T07:41:04.205Z,15.32
2023-03-22T07:44:16.658Z,13.07
2023-03-22T07:47:14.656Z,15.10
2023-03-22T07:50:13.182Z,15.25
2023-03-22T07:53:10.873Z,16.50
2023-03-22T07:56:08.337Z,14.13
2023-03-22T07:59:05.260Z,17.45
2023-03-22T08:02:02.313Z,11.27
2023-03-22T08:04:59.161Z,16.80
2023-03-22T08:07:56.957Z,14.57
2023-03-22T08:10:53.857Z,14.63
2023-03-22T08:13:51.450Z,11.18
2023-03-22T08:16:48.307Z,13.38
2023-03-22T08:19:46.392Z,9.80
2023-03-22T08:22:43.330Z,11.40
2023-03-22T08:25:40.257Z,11.32
2023-03-22T08:28:37.557Z,10.30
2023-03-22T08:31:34.460Z,12.10
2023-03-22T08:34:33.207Z,15.18
2023-03-22T08:37:30.140Z,18.88
2023-03-22T08:40:27.288Z,14.40
2023-03-22T08:43:24.270Z,9.18
2023-03-22T08:46:21.146Z,10.07
2023-03-22T08:49:18.036Z,12.00
2023-03-22T08:52:14.914Z,10.35
2023-03-22T08:55:11.783Z,9.95
2023-03-22T08:58:10.188Z,10.68
2023-03-22T09:01:07.235Z,10.85
2023-03-22T09:04:05.619Z,9.18
2023-03-22T09:07:02.751Z,8.40
2023-03-22T09:09:59.606Z,8.18
2023-03-22T09:12:56.666Z,9.77
2023-03-22T09:15:53.635Z,10.40
2023-03-22T09:18:50.589Z,10.45
2023-03-22T09:21:47.625Z,8.75
2023-03-22T09:24:44.522Z,10.80
2023-03-22T09:27:41.377Z,9.93
2023-03-22T09:30:38.941Z,9.43
2023-03-22T09:33:38.216Z,9.60
2023-03-22T09:36:35.106Z,9.57
2023-03-22T09:39:32.003Z,10.13
2023-03-22T09:42:44.045Z,7.13
2023-03-22T09:45:44.260Z,7.63
2023-03-22T09:48:44.184Z,7.35
2023-03-22T09:51:45.033Z,20.13
2023-03-22T09:57:40.888Z,7.80
2023-03-22T10:00:45.866Z,5.82
2023-03-22T10:03:54.885Z,7.47
2023-03-22T10:07:30.728Z,5.78
2023-03-22T10:10:28.104Z,5.57
2023-03-22T10:13:47.778Z,4.18
2023-03-22T10:16:45.852Z,6.40
2023-03-22T10:20:09.615Z,4.90
2023-03-22T10:23:13.207Z,5.10
2023-03-22T10:26:23.984Z,5.72
2023-03-22T10:29:39.646Z,4.53
2023-03-22T10:32:57.130Z,4.82
2023-03-22T10:35:55.823Z,3.08
2023-03-22T10:38:58.962Z,3.45
2023-03-22T10:41:58.716Z,3.88
2023-03-22T10:45:09.295Z,3.38
2023-03-22T10:48:25.212Z,3.42
2023-03-22T10:51:47.777Z,4.80
2023-03-22T10:54:44.771Z,2.30
2023-03-22T10:57:51.401Z,3.72
2023-03-22T11:00:55.933Z,3.15
2023-03-22T11:04:02.884Z,3.03
2023-03-22T11:06:59.720Z,3.72
2023-03-22T11:10:22.952Z,4.85
2023-03-22T11:13:23.027Z,1.88
2023-03-22T11:16:20.558Z,4.05
2023-03-22T11:19:39.370Z,4.70
2023-03-22T11:22:48.103Z,2.95
2023-03-22T11:25:51.089Z,1.27
2023-03-22T11:28:51.190Z,3.83
2023-03-22T11:31:57.159Z,2.88
2023-03-22T11:35:23.134Z,2.92
2023-03-22T11:38:40.496Z,2.78
2023-03-22T11:41:39.955Z,4.53
2023-03-22T11:44:38.086Z,4.20
2023-03-22T11:47:41.594Z,3.65
2023-03-22T11:50:41.924Z,3.15
2023-03-22T11:53:46.841Z,2.20
2023-03-22T11:56:48.103Z,2.75
2023-03-22T12:00:08.016Z,5.38
2023-03-22T12:03:17.943Z,4.47
2023-03-22T12:06:31.867Z,4.57
2023-03-22T12:09:59.144Z,3.17
2023-03-22T12:13:07.036Z,5.53
2023-03-22T12:16:07.960Z,4.28
2023-03-22T12:19:51.990Z,2.28
2023-03-22T12:22:54.225Z,3.92
2023-03-22T12:26:00.377Z,1.92
2023-03-22T12:29:09.716Z,2.83
2023-03-22T12:32:16.057Z,2.60
2023-03-22T12:35:21.670Z,3.63
2023-03-22T12:38:41.103Z,3.90
2023-03-22T12:41:43.105Z,2.10
2023-03-22T12:44:46.511Z,1.70
2023-03-22T12:48:08.123Z,2.83
2023-03-22T12:51:12.715Z,2.58
2023-03-22T12:54:13.941Z,2.65
2023-03-22T12:57:11.790Z,2.55
2023-03-22T13:00:15.789Z,2.03
2023-03-22T13:03:38.189Z,2.85
2023-03-22T13:06:58.002Z,2.00
2023-03-22T13:09:54.891Z,1.50
2023-03-22T13:13:21.145Z,1.70
2023-03-22T13:16:22.708Z,2.55
2023-03-22T13:19:35.803Z,2.42
2023-03-22T13:22:38.672Z,2.25
2023-03-22T13:25:38.968Z,2.15
2023-03-22T13:28:38.061Z,3.97
2023-03-22T13:31:42.753Z,1.35
2023-03-22T13:34:52.603Z,3.08
2023-03-22T13:37:51.346Z,1.77
2023-03-22T13:41:13.725Z,1.77
2023-03-22T13:44:37.172Z,4.05
2023-03-22T13:47:46.472Z,1.77
2023-03-22T13:50:43.919Z,2.70
2023-03-22T13:54:02.255Z,1.25
2023-03-22T13:57:01.504Z,2.85
2023-03-22T14:00:20.713Z,2.60
2023-03-22T14:03:31.538Z,2.08
2023-03-22T14:09:51.092Z,2.97
2023-03-22T14:13:31.874Z,3.65
2023-03-22T14:16:47.345Z,2.97
2023-03-22T14:19:44.694Z,1.92
